Time;durP1;ratioP1;P1;durP2;ratioP2;P2;SDS_P1;SDS_P2;PMS_P1;PMS_P2;Temp;Humidity;BMP_temperature;BMP_pressure;BME280_temperature;BME280_humidity;BME280_pressure;Samples;Min_cycle;Max_cycle;Signal;HPM_P1;HPM_P2
2022/04/02 00:00:44;;;;;;;51.95;6.72;;;15.50;99.90;;;;;;5293633;28;20110;-78
2022/04/02 00:03:15;;;;;;;34.08;5.57;;;15.50;99.90;;;;;;5293684;28;20103;-77
2022/04/02 00:05:46;;;;;;;39.40;6.53;;;15.10;99.90;;;;;;5275347;28;20032;-78
2022/04/02 00:08:17;;;;;;;35.97;6.00;;;14.50;99.90;;;;;;5293623;28;20023;-76
2022/04/02 00:10:47;;;;;;;38.08;7.00;;;14.90;99.90;;;;;;5293019;28;20039;-77
2022/04/02 00:13:18;;;;;;;42.90;6.55;;;14.60;99.90;;;;;;5293291;28;20455;-77
2022/04/02 00:15:49;;;;;;;41.45;6.63;;;14.10;99.90;;;;;;5275197;28;20053;-78
2022/04/02 00:18:21;;;;;;;36.28;6.13;;;14.90;99.90;;;;;;5275354;28;20106;-77
2022/04/02 00:20:51;;;;;;;38.30;6.28;;;15.30;99.90;;;;;;5293442;28;20130;-77
2022/04/02 00:23:40;;;;;;;48.53;6.78;;;15.10;99.90;;;;;;5293919;28;20088;-80
2022/04/02 00:26:14;;;;;;;45.65;6.55;;;15.20;99.90;;;;;;5293345;28;20069;-78
2022/04/02 00:28:48;;;;;;;38.30;6.50;;;15.10;99.90;;;;;;5293251;28;20069;-78
2022/04/02 00:31:20;;;;;;;36.65;7.70;;;15.70;99.90;;;;;;5293205;28;20063;-78
2022/04/02 00:33:51;;;;;;;35.67;7.18;;;15.80;99.90;;;;;;5293270;28;20047;-81
2022/04/02 00:36:22;;;;;;;41.92;6.47;;;16.00;99.90;;;;;;5293327;28;20059;-78
2022/04/02 00:38:53;;;;;;;33.28;5.65;;;16.20;99.90;;;;;;5293604;28;20215;-79
2022/04/02 00:41:24;;;;;;;38.95;5.78;;;16.00;99.90;;;;;;5293159;28;20390;-82
2022/04/02 00:43:58;;;;;;;39.55;7.40;;;16.00;99.90;;;;;;5274251;28;20022;-81
2022/04/02 00:46:29;;;;;;;39.28;6.30;;;15.90;99.90;;;;;;5293001;28;20027;-79
2022/04/02 00:49:00;;;;;;;42.80;6.55;;;16.10;99.90;;;;;;5293502;28;20016;-80
2022/04/02 00:51:32;;;;;;;35.08;6.13;;;15.80;99.90;;;;;;5274226;28;20483;-80
2022/04/02 00:54:04;;;;;;;43.30;7.03;;;16.00;99.90;;;;;;5292959;28;20366;-81
2022/04/02 00:56:36;;;;;;;45.15;6.03;;;15.90;99.90;;;;;;5274884;28;20126;-80
2022/04/02 00:59:08;;;;;;;40.45;5.80;;;15.90;99.90;;;;;;5293044;28;20024;-80
2022/04/02 01:01:39;;;;;;;34.22;6.07;;;16.00;99.90;;;;;;5292719;28;20110;-79
2022/04/02 01:04:10;;;;;;;42.80;5.72;;;16.00;99.90;;;;;;5293174;28;20435;-82
2022/04/02 01:06:42;;;;;;;41.63;6.85;;;16.10;99.90;;;;;;5292790;28;20107;-79
2022/04/02 01:09:13;;;;;;;43.55;6.25;;;16.20;99.90;;;;;;5292950;28;20424;-82
2022/04/02 01:11:45;;;;;;;43.92;6.93;;;16.50;99.90;;;;;;5292526;28;20122;-77
2022/04/02 01:14:16;;;;;;;45.00;7.47;;;16.50;99.90;;;;;;5292631;28;20213;-79
2022/04/02 01:16:47;;;;;;;53.42;7.03;;;16.90;99.90;;;;;;5292678;28;20107;-78
2022/04/02 01:19:18;;;;;;;45.92;6.20;;;16.80;99.90;;;;;;5292702;28;20028;-78
2022/04/02 01:21:49;;;;;;;39.38;6.00;;;16.70;99.90;;;;;;5273901;28;20062;-78
2022/04/02 01:24:20;;;;;;;40.38;5.57;;;16.80;99.90;;;;;;5292439;28;20068;-77
2022/04/02 01:26:51;;;;;;;44.20;7.43;;;17.00;99.90;;;;;;5292671;28;20020;-82
2022/04/02 01:29:22;;;;;;;49.65;6.95;;;17.10;99.90;;;;;;5292267;28;20019;-80
2022/04/02 01:31:53;;;;;;;52.35;6.95;;;17.10;99.90;;;;;;5292091;28;20032;-82
2022/04/02 01:34:23;;;;;;;60.42;8.60;;;17.00;99.90;;;;;;5291976;28;20539;-81
2022/04/02 01:36:55;;;;;;;46.58;7.03;;;17.10;99.90;;;;;;5292820;28;20137;-80
2022/04/02 01:39:26;;;;;;;58.22;7.35;;;16.90;99.90;;;;;;5293454;28;20534;-83
2022/04/02 01:41:57;;;;;;;57.03;7.20;;;17.00;99.90;;;;;;5274169;28;20378;-81
2022/04/02 01:44:27;;;;;;;52.20;7.15;;;16.90;99.90;;;;;;5291934;28;20031;-81
2022/04/02 01:46:59;;;;;;;82.50;9.90;;;17.10;99.90;;;;;;5292151;28;20020;-80
2022/04/02 01:49:29;;;;;;;58.63;7.78;;;17.10;99.90;;;;;;5292150;28;20024;-82
2022/04/02 01:52:00;;;;;;;58.90;6.97;;;17.00;99.90;;;;;;5291715;28;20027;-81
2022/04/02 01:54:31;;;;;;;49.33;7.50;;;17.10;99.90;;;;;;5290886;28;20047;-82
2022/04/02 01:57:03;;;;;;;57.70;9.00;;;17.00;99.90;;;;;;5292102;28;20102;-82
2022/04/02 01:59:34;;;;;;;61.10;9.02;;;16.90;99.90;;;;;;5291841;28;20020;-81
2022/04/02 02:02:07;;;;;;;62.35;8.10;;;16.90;99.90;;;;;;5291638;28;20022;-80
2022/04/02 02:04:38;;;;;;;51.38;8.40;;;16.80;99.90;;;;;;5291660;28;20390;-81
2022/04/02 02:07:09;;;;;;;71.68;9.23;;;16.60;99.90;;;;;;5291685;28;20104;-80
2022/04/02 02:09:40;;;;;;;67.18;9.02;;;16.80;99.90;;;;;;5292018;28;20035;-80
2022/04/02 02:12:11;;;;;;;63.53;8.07;;;16.80;99.90;;;;;;5291586;28;20032;-81
2022/04/02 02:14:42;;;;;;;63.30;8.55;;;16.80;99.90;;;;;;5292661;28;20019;-82
2022/04/02 02:17:15;;;;;;;40.50;7.25;;;16.70;99.90;;;;;;5291960;28;20028;-83
2022/04/02 02:19:46;;;;;;;66.28;9.18;;;16.80;99.90;;;;;;5272923;28;20046;-81
2022/04/02 02:22:17;;;;;;;44.05;7.80;;;16.60;99.90;;;;;;5291277;28;20043;-80
2022/04/02 02:24:47;;;;;;;52.55;8.13;;;16.70;99.90;;;;;;5291917;28;20031;-80
2022/04/02 02:27:18;;;;;;;59.47;8.13;;;16.80;99.90;;;;;;5273043;28;20462;-79
2022/04/02 02:29:49;;;;;;;69.70;9.80;;;16.70;99.90;;;;;;5291229;28;20059;-80
2022/04/02 02:32:20;;;;;;;76.20;8.68;;;16.50;99.90;;;;;;5290751;28;20038;-80
2022/04/02 02:37:40;;;;;;;88.10;10.98;;;16.60;99.90;;;;;;5291000;28;20093;-79
2022/04/02 02:40:12;;;;;;;67.10;8.90;;;16.50;99.90;;;;;;5290843;28;20459;-78
2022/04/02 02:42:43;;;;;;;68.18;8.88;;;16.50;99.90;;;;;;5290860;28;20467;-78
2022/04/02 02:45:14;;;;;;;68.38;9.10;;;16.70;99.90;;;;;;5272839;28;20047;-79
2022/04/02 02:47:45;;;;;;;80.15;9.52;;;16.60;99.90;;;;;;5290652;28;20028;-78
2022/04/02 02:50:16;;;;;;;86.22;11.15;;;16.70;99.90;;;;;;5290180;28;20115;-79
2022/04/02 02:52:47;;;;;;;76.93;8.93;;;16.60;99.90;;;;;;5290384;28;20031;-78
2022/04/02 02:55:18;;;;;;;76.68;9.35;;;16.60;99.90;;;;;;5272248;28;20031;-77
2022/04/02 02:57:49;;;;;;;79.28;11.20;;;16.60;99.90;;;;;;5290720;28;20020;-78
2022/04/02 03:00:20;;;;;;;93.85;11.20;;;16.50;99.90;;;;;;5290623;28;20366;-78
2022/04/02 03:02:51;;;;;;;84.68;10.13;;;16.50;99.90;;;;;;5290621;28;20069;-78
2022/04/02 03:05:22;;;;;;;87.97;11.35;;;16.50;99.90;;;;;;5290428;28;20463;-78
2022/04/02 03:07:53;;;;;;;77.00;8.10;;;16.60;99.90;;;;;;5290382;28;20073;-79
2022/04/02 03:10:26;;;;;;;105.78;10.95;;;16.60;99.90;;;;;;5272259;28;20489;-80
2022/04/02 03:12:59;;;;;;;86.43;11.18;;;16.30;99.90;;;;;;5290439;28;20455;-79
2022/04/02 03:15:29;;;;;;;93.85;10.25;;;16.40;99.90;;;;;;5290447;28;20471;-79
2022/04/02 03:18:05;;;;;;;76.03;9.88;;;16.30;99.90;;;;;;5290720;28;20026;-81
2022/04/02 03:20:37;;;;;;;87.43;8.75;;;16.40;99.90;;;;;;5290119;28;20035;-80
2022/04/02 03:23:09;;;;;;;86.90;11.52;;;16.40;99.90;;;;;;5290063;28;20115;-78
2022/04/02 03:25:39;;;;;;;79.95;9.93;;;16.10;99.90;;;;;;5290464;28;20059;-78
2022/04/02 03:28:10;;;;;;;74.20;9.90;;;16.20;99.90;;;;;;5290260;28;20047;-84
2022/04/02 03:30:41;;;;;;;83.57;10.35;;;16.20;99.90;;;;;;5289940;28;20027;-84
2022/04/02 03:33:12;;;;;;;103.70;11.25;;;16.20;99.90;;;;;;5289977;28;20547;-83
2022/04/02 03:35:44;;;;;;;94.65;11.55;;;16.30;99.90;;;;;;5271758;28;20065;-83
2022/04/02 03:38:15;;;;;;;65.57;9.93;;;16.10;99.90;;;;;;5272037;28;20076;-78
2022/04/02 03:40:46;;;;;;;97.45;10.90;;;16.20;99.90;;;;;;5290041;28;20028;-79
2022/04/02 03:43:17;;;;;;;80.85;9.85;;;16.00;99.90;;;;;;5289906;28;20024;-78
2022/04/02 03:45:47;;;;;;;92.78;10.65;;;15.90;99.90;;;;;;5271642;28;20032;-78
2022/04/02 03:48:19;;;;;;;91.75;10.38;;;16.00;99.90;;;;;;5289991;28;20024;-78
2022/04/02 03:50:49;;;;;;;81.45;11.05;;;15.70;99.90;;;;;;5289975;28;20125;-84
2022/04/02 03:53:20;;;;;;;87.63;12.23;;;15.70;99.90;;;;;;5289914;28;20038;-78
2022/04/02 03:55:52;;;;;;;76.75;10.20;;;15.80;99.90;;;;;;5290010;28;20055;-80
2022/04/02 03:58:22;;;;;;;97.78;11.60;;;15.70;99.90;;;;;;5289841;28;20503;-80
2022/04/02 04:00:53;;;;;;;73.70;9.23;;;15.70;99.90;;;;;;5289686;28;20103;-79
2022/04/02 04:03:24;;;;;;;80.70;9.77;;;15.60;99.90;;;;;;5290149;28;20034;-80
2022/04/02 04:05:55;;;;;;;92.18;12.30;;;15.60;99.90;;;;;;5271617;28;20028;-79
2022/04/02 04:08:26;;;;;;;92.60;10.95;;;15.50;99.90;;;;;;5289647;28;20024;-78
2022/04/02 04:10:57;;;;;;;84.40;9.63;;;15.40;99.90;;;;;;5289868;28;20031;-78
2022/04/02 04:13:28;;;;;;;93.97;10.02;;;15.40;99.90;;;;;;5289486;28;20023;-78
2022/04/02 04:16:01;;;;;;;78.15;10.00;;;15.50;99.90;;;;;;5289851;28;20497;-78
2022/04/02 04:18:32;;;;;;;85.55;9.43;;;15.50;99.90;;;;;;5272989;28;20032;-79
2022/04/02 04:21:03;;;;;;;77.55;10.70;;;15.40;99.90;;;;;;5293170;28;20055;-78
2022/04/02 04:23:34;;;;;;;102.38;9.65;;;15.30;99.90;;;;;;5293637;28;20055;-79
2022/04/02 04:26:05;;;;;;;71.75;9.35;;;15.30;99.90;;;;;;5275278;28;20114;-79
2022/04/02 04:28:39;;;;;;;72.90;11.07;;;15.30;99.90;;;;;;5293371;28;20149;-77
2022/04/02 04:31:10;;;;;;;86.15;10.68;;;15.40;99.90;;;;;;5293427;28;20027;-80
2022/04/02 04:33:40;;;;;;;92.80;10.52;;;15.30;99.90;;;;;;5274841;28;20482;-79
2022/04/02 04:36:12;;;;;;;71.85;9.70;;;15.20;99.90;;;;;;5293132;28;20090;-79
2022/04/02 04:38:43;;;;;;;79.32;9.02;;;15.30;99.90;;;;;;5293421;28;20153;-79
2022/04/02 04:41:14;;;;;;;87.65;10.73;;;15.40;99.90;;;;;;5293026;28;20382;-80
2022/04/02 04:43:49;;;;;;;72.50;10.18;;;15.30;99.90;;;;;;5293078;28;20037;-80
2022/04/02 04:46:20;;;;;;;81.57;11.48;;;15.40;99.90;;;;;;5274841;28;20475;-81
2022/04/02 04:48:51;;;;;;;75.57;11.10;;;15.40;99.90;;;;;;5293057;28;20467;-80
2022/04/02 04:51:23;;;;;;;80.38;8.13;;;15.40;99.90;;;;;;5292690;28;20039;-80
2022/04/02 04:53:54;;;;;;;94.30;9.40;;;15.50;99.90;;;;;;5292885;28;20035;-79
2022/04/02 04:56:25;;;;;;;71.25;9.25;;;15.60;99.90;;;;;;5293629;28;20401;-78
2022/04/02 04:58:55;;;;;;;75.75;9.15;;;15.60;99.90;;;;;;5292712;28;20024;-80
2022/04/02 05:01:28;;;;;;;81.38;9.98;;;15.70;99.90;;;;;;5292677;28;20023;-79
2022/04/02 05:03:59;;;;;;;67.15;8.32;;;15.70;99.90;;;;;;5292671;28;20046;-78
2022/04/02 05:06:30;;;;;;;86.55;9.55;;;15.80;99.90;;;;;;5292686;28;20061;-79
2022/04/02 05:09:02;;;;;;;84.30;9.65;;;15.90;99.90;;;;;;5292943;28;20051;-78
2022/04/02 05:11:34;;;;;;;88.22;9.88;;;16.00;99.90;;;;;;5292419;28;20042;-79
2022/04/02 05:14:05;;;;;;;85.68;11.02;;;16.00;99.90;;;;;;5292709;28;20030;-80
2022/04/02 05:16:36;;;;;;;75.65;10.10;;;16.10;99.90;;;;;;5292453;28;20020;-79
2022/04/02 05:19:09;;;;;;;78.18;11.65;;;16.30;99.90;;;;;;5273743;28;20077;-80
2022/04/02 05:21:40;;;;;;;70.63;9.20;;;16.30;99.90;;;;;;5274284;28;20411;-81
2022/04/02 05:24:10;;;;;;;76.43;9.88;;;16.50;99.90;;;;;;5292332;28;20027;-82
2022/04/02 05:26:41;;;;;;;69.45;9.60;;;16.50;99.90;;;;;;5292054;28;20016;-79
2022/04/02 05:29:12;;;;;;;82.90;8.68;;;16.60;99.90;;;;;;5292024;28;20544;-80
2022/04/02 05:31:43;;;;;;;71.18;8.85;;;16.70;99.90;;;;;;5291859;28;20118;-83
2022/04/02 05:34:14;;;;;;;84.45;9.63;;;16.70;99.90;;;;;;5292079;28;20092;-78
2022/04/02 05:36:45;;;;;;;88.05;10.25;;;16.90;99.90;;;;;;5291957;28;20076;-78
2022/04/02 05:39:16;;;;;;;52.20;6.88;;;17.00;99.90;;;;;;5291908;28;20028;-83
2022/04/02 05:41:48;;;;;;;81.80;10.75;;;17.00;99.90;;;;;;5291767;28;20479;-81
2022/04/02 05:44:19;;;;;;;63.42;8.13;;;17.20;99.90;;;;;;5273624;28;20026;-78
2022/04/02 05:46:50;;;;;;;90.32;10.48;;;17.30;99.90;;;;;;5291893;28;20055;-80
2022/04/02 05:49:21;;;;;;;82.32;10.50;;;17.40;99.90;;;;;;5291777;28;20057;-79
2022/04/02 05:51:51;;;;;;;112.03;10.48;;;17.50;99.90;;;;;;5291304;28;20044;-80
2022/04/02 05:54:22;;;;;;;77.90;10.88;;;17.60;99.90;;;;;;5291492;28;20023;-83
2022/04/02 05:56:54;;;;;;;85.30;10.02;;;17.60;99.90;;;;;;5273259;28;20023;-80
2022/04/02 05:59:25;;;;;;;77.75;9.70;;;17.80;99.90;;;;;;5291413;28;20031;-81
2022/04/02 06:01:55;;;;;;;86.30;10.43;;;17.80;99.90;;;;;;5273412;28;20045;-81
2022/04/02 06:04:28;;;;;;;79.78;9.13;;;17.90;99.90;;;;;;5291393;28;20019;-79
2022/04/02 06:06:59;;;;;;;73.32;9.57;;;18.00;99.90;;;;;;5291517;28;20521;-80
2022/04/02 06:09:29;;;;;;;88.60;9.88;;;18.10;99.90;;;;;;5291365;28;20051;-79
2022/04/02 06:12:01;;;;;;;92.55;10.10;;;18.30;99.90;;;;;;5291066;28;20490;-79
2022/04/02 06:14:32;;;;;;;84.65;9.50;;;18.20;99.90;;;;;;5291208;28;20493;-76
2022/04/02 06:17:03;;;;;;;82.47;10.73;;;18.40;99.90;;;;;;5290835;28;20031;-77
2022/04/02 06:19:34;;;;;;;90.43;10.10;;;18.50;99.90;;;;;;5290774;28;20020;-80
2022/04/02 06:22:06;;;;;;;98.20;11.02;;;18.50;99.90;;;;;;5290615;28;20498;-82
2022/04/02 06:24:37;;;;;;;78.93;10.32;;;18.70;99.90;;;;;;5291115;28;20493;-79
2022/04/02 06:27:08;;;;;;;98.28;10.38;;;18.80;99.90;;;;;;5290860;28;20031;-80
2022/04/02 06:29:39;;;;;;;117.00;12.82;;;18.80;99.90;;;;;;5272955;28;20027;-78
2022/04/02 06:32:10;;;;;;;75.18;9.95;;;18.80;99.90;;;;;;5272453;28;20081;-87
2022/04/02 06:34:41;;;;;;;83.60;9.15;;;18.80;99.90;;;;;;5290886;28;20026;-80
2022/04/02 06:37:11;;;;;;;103.07;12.57;;;18.80;99.90;;;;;;5290669;28;20510;-79
2022/04/02 06:39:42;;;;;;;77.60;9.98;;;18.60;99.90;;;;;;5290698;28;20030;-80
2022/04/02 06:42:13;;;;;;;99.28;11.20;;;18.80;99.90;;;;;;5290336;28;20485;-82
2022/04/02 06:44:44;;;;;;;81.80;10.60;;;18.90;99.90;;;;;;5290601;28;20058;-81
2022/04/02 06:47:15;;;;;;;85.63;9.95;;;18.90;99.90;;;;;;5290543;28;20015;-81
2022/04/02 06:49:46;;;;;;;78.78;9.20;;;19.00;99.90;;;;;;5290281;28;20514;-81
2022/04/02 06:52:17;;;;;;;96.32;9.93;;;19.20;99.90;;;;;;5290336;28;20122;-79
2022/04/02 06:54:48;;;;;;;98.03;12.75;;;19.20;99.90;;;;;;5272294;28;20072;-79
2022/04/02 06:57:23;;;;;;;88.70;10.55;;;19.10;99.90;;;;;;5290397;28;20104;-84
2022/04/02 06:59:54;;;;;;;112.25;11.02;;;18.80;99.90;;;;;;5290642;28;20047;-80
2022/04/02 07:02:25;;;;;;;88.60;11.63;;;18.90;99.90;;;;;;5290382;28;20019;-80
2022/04/02 07:04:56;;;;;;;82.50;9.65;;;19.10;99.90;;;;;;5290361;28;20436;-81
2022/04/02 07:07:27;;;;;;;79.03;10.18;;;19.20;99.90;;;;;;5290299;28;20015;-82
2022/04/02 07:09:58;;;;;;;81.18;9.63;;;19.10;99.90;;;;;;5290254;28;20554;-82
2022/04/02 07:12:29;;;;;;;71.38;9.57;;;19.00;99.90;;;;;;5290061;28;20133;-81
2022/04/02 07:15:00;;;;;;;88.13;9.18;;;19.40;99.90;;;;;;5290331;28;20391;-80
2022/04/02 07:17:31;;;;;;;96.72;10.27;;;19.30;99.90;;;;;;5290315;28;20107;-81
2022/04/02 07:20:03;;;;;;;74.82;9.70;;;19.40;99.90;;;;;;5289955;28;20110;-80
2022/04/02 07:22:35;;;;;;;84.40;9.85;;;19.30;99.90;;;;;;5290272;28;20620;-80
2022/04/02 07:25:07;;;;;;;87.38;9.00;;;19.50;99.90;;;;;;5289941;28;20027;-79
2022/04/02 07:27:39;;;;;;;85.97;10.68;;;19.60;99.90;;;;;;5289959;28;20035;-81
2022/04/02 07:30:11;;;;;;;53.33;7.32;;;19.60;99.90;;;;;;5289985;28;20028;-83
2022/04/02 07:32:41;;;;;;;77.05;9.65;;;19.40;99.90;;;;;;5290102;28;20028;-79
2022/04/02 07:35:12;;;;;;;75.13;8.60;;;19.70;99.90;;;;;;5289917;28;20374;-82
2022/04/02 07:38:02;;;;;;;78.05;9.35;;;19.60;99.90;;;;;;5290016;28;20023;-81
2022/04/02 07:41:20;;;;;;;72.55;9.90;;;19.70;99.90;;;;;;5290006;28;20016;-81
2022/04/02 07:43:58;;;;;;;78.85;8.27;;;19.50;99.90;;;;;;5271498;28;20023;-81
2022/04/02 07:46:30;;;;;;;55.83;8.65;;;19.90;99.90;;;;;;5290082;28;20028;-81
2022/04/02 07:49:03;;;;;;;76.18;8.32;;;19.70;99.90;;;;;;5290285;28;20479;-80
2022/04/02 07:51:38;;;;;;;90.57;8.38;;;20.30;99.90;;;;;;5289626;28;20042;-81
2022/04/02 07:54:12;;;;;;;57.35;6.75;;;20.10;99.90;;;;;;5292926;28;20027;-82
2022/04/02 07:56:46;;;;;;;70.22;8.95;;;19.80;99.90;;;;;;5293783;28;20035;-80
2022/04/02 07:59:34;;;;;;;78.85;10.38;;;20.60;99.90;;;;;;5294366;28;20019;-83
2022/04/02 08:02:36;;;;;;;73.70;9.30;;;20.30;99.90;;;;;;5294048;28;20057;-82
2022/04/02 08:05:05;;;;;;;68.20;8.30;;;20.60;99.90;;;;;;5293841;28;20054;-82
2022/04/02 08:07:49;;;;;;;50.15;6.93;;;20.70;99.90;;;;;;5293902;28;20032;-83
2022/04/02 08:10:23;;;;;;;69.55;8.65;;;20.60;99.90;;;;;;5293746;28;20030;-81
2022/04/02 08:12:55;;;;;;;68.63;7.47;;;20.40;99.90;;;;;;5293490;28;20023;-81
2022/04/02 08:15:27;;;;;;;60.53;7.60;;;20.80;99.90;;;;;;5275940;28;20023;-82
2022/04/02 08:18:01;;;;;;;67.90;6.75;;;20.70;99.90;;;;;;5293812;28;20028;-81
2022/04/02 08:20:33;;;;;;;61.33;7.45;;;20.70;99.90;;;;;;5293198;28;20100;-81
2022/04/02 08:23:04;;;;;;;61.65;6.85;;;20.90;99.90;;;;;;5293335;28;20390;-82
2022/04/02 08:25:47;;;;;;;61.70;7.72;;;21.20;99.90;;;;;;5293678;28;20583;-82
2022/04/02 08:28:26;;;;;;;66.53;7.28;;;20.60;99.90;;;;;;5293505;28;20024;-82
2022/04/02 08:31:24;;;;;;;69.30;9.10;;;20.60;99.90;;;;;;5293290;28;20039;-82
2022/04/02 08:34:25;;;;;;;60.90;8.18;;;20.70;99.90;;;;;;5280782;28;20038;-81
2022/04/02 08:37:06;;;;;;;71.00;8.45;;;20.80;99.90;;;;;;5293492;28;20031;-83
2022/04/02 08:39:58;;;;;;;64.32;7.85;;;20.80;99.90;;;;;;5293006;28;20109;-83
2022/04/02 08:43:16;;;;;;;68.93;7.35;;;21.00;99.90;;;;;;5274730;28;20080;-81
2022/04/02 08:45:58;;;;;;;69.07;7.32;;;20.80;99.90;;;;;;5293054;28;20026;-81
2022/04/02 08:48:33;;;;;;;48.30;7.00;;;21.00;99.90;;;;;;5293117;28;20530;-82
2022/04/02 08:51:28;;;;;;;62.33;7.25;;;20.60;99.90;;;;;;5292911;28;20042;-79
2022/04/02 08:54:04;;;;;;;47.80;5.97;;;21.30;99.90;;;;;;5292577;28;20028;-80
2022/04/02 08:56:44;;;;;;;53.17;6.53;;;20.60;99.90;;;;;;5292704;28;20107;-78
2022/04/02 08:59:32;;;;;;;47.03;6.00;;;20.80;96.80;;;;;;5292574;28;20031;-81
2022/04/02 09:02:31;;;;;;;69.18;7.22;;;20.90;98.80;;;;;;5292627;28;20032;-79
2022/04/02 09:05:06;;;;;;;40.17;5.30;;;20.70;92.10;;;;;;5292624;28;20028;-82
2022/04/02 09:08:05;;;;;;;51.58;5.65;;;21.40;89.80;;;;;;5274409;28;20055;-79
2022/04/02 09:10:50;;;;;;;55.42;6.07;;;21.10;89.20;;;;;;5292272;28;20084;-81
2022/04/02 09:13:50;;;;;;;46.92;6.05;;;20.90;86.20;;;;;;5274344;28;20019;-82
2022/04/02 09:16:27;;;;;;;58.22;5.90;;;21.00;87.90;;;;;;5292544;28;20118;-82
2022/04/02 09:19:10;;;;;;;39.97;5.25;;;21.40;90.20;;;;;;5292572;28;20026;-80
2022/04/02 09:21:57;;;;;;;48.30;6.47;;;21.40;86.60;;;;;;5291983;28;20067;-82
2022/04/02 09:25:04;;;;;;;52.08;5.78;;;21.20;87.30;;;;;;5292371;28;20062;-80
2022/04/02 09:28:01;;;;;;;53.55;6.82;;;21.80;86.30;;;;;;5274391;28;20035;-81
2022/04/02 09:31:18;;;;;;;45.42;5.78;;;21.70;86.10;;;;;;5281546;28;20039;-81
2022/04/02 09:33:55;;;;;;;43.20;6.28;;;21.40;82.90;;;;;;5253459;28;20074;-81
2022/04/02 09:36:44;;;;;;;47.65;6.00;;;21.70;82.20;;;;;;5273903;28;20475;-84
2022/04/02 09:39:24;;;;;;;40.65;5.50;;;22.40;83.70;;;;;;5292430;28;20041;-82
2022/04/02 09:41:58;;;;;;;;;;;21.60;81.80;;;;;;5292317;28;20073;-81
2022/04/02 09:44:40;;;;;;;30.77;3.83;;;22.00;81.30;;;;;;5291725;28;19904;-83
2022/04/02 09:47:31;;;;;;;45.90;5.85;;;21.70;78.70;;;;;;5291870;28;20077;-81
2022/04/02 09:50:22;;;;;;;58.33;6.40;;;22.20;78.70;;;;;;5291885;28;20510;-82
2022/04/02 09:52:57;;;;;;;54.65;6.93;;;22.30;80.30;;;;;;5291790;28;20085;-80
2022/04/02 09:55:31;;;;;;;48.47;5.88;;;22.40;82.80;;;;;;5291686;28;20027;-82
2022/04/02 09:58:20;;;;;;;48.25;4.97;;;21.70;79.30;;;;;;5291753;28;20351;-82
2022/04/02 10:01:09;;;;;;;41.92;5.28;;;21.60;78.20;;;;;;5291671;28;20016;-82
2022/04/02 10:03:48;;;;;;;46.30;5.75;;;22.70;78.50;;;;;;5273116;28;20104;-83
2022/04/02 10:06:34;;;;;;;56.42;6.28;;;21.90;77.40;;;;;;5291586;28;20035;-81
2022/04/02 10:09:08;;;;;;;41.35;5.68;;;22.30;78.00;;;;;;5291487;28;20382;-82
2022/04/02 10:11:49;;;;;;;44.67;5.78;;;22.50;77.70;;;;;;5291157;28;20040;-82
2022/04/02 10:14:25;;;;;;;36.45;4.82;;;22.30;74.70;;;;;;5291237;28;20020;-81
2022/04/02 10:17:04;;;;;;;37.13;5.25;;;22.30;72.90;;;;;;5290568;28;20027;-85
2022/04/02 10:19:38;;;;;;;32.03;3.90;;;22.30;72.40;;;;;;5291185;28;20371;-84
2022/04/02 10:22:11;;;;;;;39.65;4.57;;;22.60;74.30;;;;;;5291071;28;20043;-83
2022/04/02 10:24:53;;;;;;;58.03;7.18;;;22.70;71.80;;;;;;5290944;28;20027;-83
2022/04/02 10:27:29;;;;;;;40.35;4.85;;;22.30;72.60;;;;;;5291545;28;20662;-84
2022/04/02 10:30:03;;;;;;;65.45;7.38;;;22.30;71.70;;;;;;5291097;28;20169;-83
2022/04/02 10:32:55;;;;;;;43.97;6.30;;;22.00;74.90;;;;;;5290763;28;20032;-83
2022/04/02 10:35:27;;;;;;;48.15;6.03;;;22.00;74.00;;;;;;5291040;28;20023;-83
2022/04/02 10:38:04;;;;;;;56.10;6.45;;;22.50;74.00;;;;;;5290870;28;20019;-86
2022/04/02 10:40:56;;;;;;;50.17;6.68;;;22.70;71.60;;;;;;5274071;28;20084;-83
2022/04/02 10:43:34;;;;;;;29.85;4.10;;;23.00;72.20;;;;;;5273437;28;20490;-87
2022/04/02 10:46:06;;;;;;;57.00;7.25;;;22.20;72.30;;;;;;5291344;28;20072;-85
2022/04/02 10:48:55;;;;;;;54.28;6.45;;;22.90;72.40;;;;;;5290751;28;20015;-82
2022/04/02 10:51:29;;;;;;;59.47;6.80;;;22.30;71.60;;;;;;5251288;28;20047;-83
2022/04/02 10:54:07;;;;;;;87.25;7.97;;;22.30;72.00;;;;;;5269589;28;20024;-81
2022/04/02 10:56:44;;;;;;;52.33;6.40;;;22.20;70.40;;;;;;5251631;28;20064;-83
2022/04/02 10:59:17;;;;;;;42.40;5.95;;;22.60;69.80;;;;;;5282017;28;20031;-84
2022/04/02 11:01:55;;;;;;;52.72;6.47;;;22.40;70.10;;;;;;5290805;28;20043;-85
2022/04/02 11:04:38;;;;;;;52.30;6.63;;;22.80;71.40;;;;;;5290971;28;20027;-86
2022/04/02 11:07:10;;;;;;;49.55;6.40;;;23.00;68.10;;;;;;5272177;28;20445;-85
2022/04/02 11:09:42;;;;;;;71.90;7.40;;;22.90;69.20;;;;;;5254567;28;20031;-85
2022/04/02 11:12:15;;;;;;;40.33;5.95;;;23.10;69.80;;;;;;5269278;28;20024;-85
2022/04/02 11:14:50;;;;;;;52.75;6.78;;;23.10;66.40;;;;;;5269495;28;20074;-84
2022/04/02 11:17:28;;;;;;;42.25;4.90;;;22.80;68.00;;;;;;5251618;28;20062;-84
2022/04/02 11:20:07;;;;;;;48.65;6.22;;;22.70;67.60;;;;;;5269081;28;20051;-82
2022/04/02 11:23:02;;;;;;;44.92;6.43;;;22.30;69.50;;;;;;5269623;28;20472;-85
2022/04/02 11:25:35;;;;;;;43.22;5.95;;;23.00;66.60;;;;;;5269279;28;20028;-87
2022/04/02 11:28:13;;;;;;;49.88;5.45;;;23.10;64.20;;;;;;5253840;28;20024;-84
2022/04/02 11:30:48;;;;;;;39.38;5.38;;;22.80;63.60;;;;;;5255255;28;20028;-85
2022/04/02 11:33:24;;;;;;;37.78;5.30;;;22.90;63.10;;;;;;5274175;28;20051;-83
2022/04/02 11:35:58;;;;;;;45.15;6.00;;;23.20;63.20;;;;;;5273922;28;20054;-83
2022/04/02 11:38:46;;;;;;;51.80;5.15;;;22.80;63.80;;;;;;5273468;28;20032;-81
2022/04/02 11:41:34;;;;;;;42.75;5.22;;;23.40;63.00;;;;;;5255362;28;20478;-81
2022/04/02 11:44:14;;;;;;;43.25;6.20;;;23.70;63.50;;;;;;5273420;28;20024;-83
2022/04/02 11:47:03;;;;;;;56.28;6.22;;;22.90;63.70;;;;;;5273291;28;20082;-79
2022/04/02 11:49:37;;;;;;;35.05;4.35;;;23.30;63.70;;;;;;5254807;28;20068;-81
2022/04/02 11:52:08;;;;;;;42.88;5.47;;;23.10;62.00;;;;;;5272775;28;20043;-85
2022/04/02 11:54:41;;;;;;;33.45;4.07;;;23.20;62.40;;;;;;5273074;28;20497;-81
2022/04/02 11:57:13;;;;;;;33.63;5.47;;;22.60;64.10;;;;;;5272899;28;20099;-84
2022/04/02 12:00:05;;;;;;;41.90;4.88;;;22.40;64.20;;;;;;5272922;28;20038;-81
2022/04/02 12:02:43;;;;;;;49.05;6.25;;;22.80;64.10;;;;;;5273186;28;20028;-81
2022/04/02 12:05:16;;;;;;;46.10;5.65;;;22.70;64.20;;;;;;5272952;28;20023;-84
2022/04/02 12:07:51;;;;;;;43.97;5.90;;;22.60;65.00;;;;;;5272995;28;20052;-82
2022/04/02 12:10:24;;;;;;;40.67;4.82;;;23.10;64.50;;;;;;5254576;28;20487;-85
2022/04/02 12:12:58;;;;;;;36.80;5.03;;;23.10;63.80;;;;;;5272960;28;20060;-85
2022/04/02 12:15:30;;;;;;;41.85;6.03;;;23.50;62.40;;;;;;5272650;28;20494;-85
2022/04/02 12:18:04;;;;;;;49.75;6.13;;;23.80;64.10;;;;;;5272547;28;20422;-85
2022/04/02 12:20:39;;;;;;;52.22;6.93;;;23.50;61.80;;;;;;5273129;28;20052;-84
2022/04/02 12:23:11;;;;;;;41.17;6.35;;;23.70;61.20;;;;;;5272802;28;20031;-81
2022/04/02 12:25:45;;;;;;;41.55;5.82;;;23.30;62.40;;;;;;5272596;28;20031;-83
2022/04/02 12:28:18;;;;;;;48.72;5.35;;;23.50;64.00;;;;;;5272354;28;20063;-81
2022/04/02 12:30:51;;;;;;;38.97;6.15;;;23.20;60.70;;;;;;5272227;28;20043;-82
2022/04/02 12:33:24;;;;;;;46.40;6.40;;;23.50;61.00;;;;;;5272422;28;20039;-81
2022/04/02 12:36:00;;;;;;;51.30;5.82;;;23.10;61.60;;;;;;5272342;28;20035;-82
2022/04/02 12:38:39;;;;;;;43.38;5.20;;;23.20;60.20;;;;;;5271711;28;20421;-80
2022/04/02 12:41:23;;;;;;;50.00;5.93;;;23.50;59.40;;;;;;5253827;28;20028;-83
2022/04/02 12:44:03;;;;;;;52.15;6.38;;;23.60;59.60;;;;;;5272253;28;20028;-83
2022/04/02 12:46:34;;;;;;;59.53;5.07;;;23.20;59.60;;;;;;5272176;28;20024;-82
2022/04/02 12:49:05;;;;;;;122.75;9.60;;;23.10;61.90;;;;;;5271802;28;20033;-83
2022/04/02 12:51:36;;;;;;;58.72;7.13;;;23.10;63.50;;;;;;5271439;28;20044;-82
2022/04/02 12:54:07;;;;;;;43.83;6.40;;;23.30;62.20;;;;;;5271643;28;20020;-82
2022/04/02 12:56:38;;;;;;;59.28;5.45;;;22.90;62.30;;;;;;5271823;28;20025;-84
2022/04/02 12:59:18;;;;;;;45.30;6.28;;;23.50;60.80;;;;;;5254252;28;20074;-85
2022/04/02 13:01:49;;;;;;;48.20;6.15;;;23.20;60.10;;;;;;5254131;28;20073;-86
2022/04/02 13:04:25;;;;;;;51.15;7.55;;;23.50;59.30;;;;;;5237104;28;20032;-85
2022/04/02 13:06:57;;;;;;;43.25;6.35;;;23.50;60.30;;;;;;5272443;28;20024;-86
2022/04/02 13:09:33;;;;;;;42.33;5.93;;;23.80;60.80;;;;;;5271844;28;20016;-81
2022/04/02 13:12:05;;;;;;;43.72;6.38;;;23.30;60.30;;;;;;5271149;28;20031;-83
2022/04/02 13:14:37;;;;;;;62.47;6.88;;;23.10;60.90;;;;;;5271176;28;20024;-82
2022/04/02 13:17:17;;;;;;;63.83;7.82;;;23.60;59.90;;;;;;5271078;28;20020;-82